タヒチ島 の空港の天気 - METARとTAF

タヒチ・ファアア国際空港 ( NTAA / PPT ) - フランス領ポリネシア タヒチ島
飛行場実況気象(Metar)
観測時間05/25 23:00 TAHT (05/26 09:00 UTC)
風向・風速南 2m/s
視程10km以上
天気現象
少しの雲 雲底高度 610m
全天の4割程度の雲 雲底高度 3050m
気温25℃
湿度83%
気圧1015hPa
METARNTAA 260900Z 18004KT 9999 FEW020CB SCT100 25/22 Q1015 TEMPO 05020G30KT 1400 TSRA FEW011 SCT014CB BKN040
過去の天気等 Google飛行場航空写真 Wunderground天気予報

過去48時間のMETAR

飛行場予報(TAF)
発表時間: 5/25 19:00 TAHT (5/26 05:00 UTC)
予報対象時間: 25日20時 TAHT ~ 27日2時 TAHT
風向・風速不定 2m/s
視程10km以上
少しの雲 雲底高度 610m
全天の8割程度の雲 雲底高度 1520m
25日20時 TAHT ~ 26日11時 TAHT に一時的に
視程3000m
天気現象しゅう雨
少しの積乱雲 雲底高度 550m
全天の4割程度の雲 雲底高度 550m
全天の8割程度の雲 雲底高度 1370m
25日20時 TAHT ~ 26日11時 TAHT に 確率 30% で一時的に
風向・風速不定 10m/s 瞬間風速 15m/s
視程1400m
天気現象雷雨
少しの雲 雲底高度 300m
全天の4割程度の積乱雲 雲底高度 550m
全天の8割程度の雲 雲底高度 1220m
TAF NTAA 260500Z 2606/2712 VRB03KT 9999 FEW020 BKN050
TEMPO 2606/2621 3000 SHRA FEW018CB SCT018 BKN045
PROB30 TEMPO 2606/2621 VRB20G30KT 1400 TSRA FEW010 SCT018CB BKN040